sensor_id;sensor_type;location;lat;lon;timestamp;temperature;humidity
18101;DHT22;9177;49.156;8.142;2022-12-29T00:00:22;19.50;92.70
18101;DHT22;9177;49.156;8.142;2022-12-29T00:02:50;19.50;92.80
18101;DHT22;9177;49.156;8.142;2022-12-29T00:05:17;19.40;92.80
18101;DHT22;9177;49.156;8.142;2022-12-29T00:07:44;19.40;92.80
18101;DHT22;9177;49.156;8.142;2022-12-29T00:10:11;19.40;92.90
18101;DHT22;9177;49.156;8.142;2022-12-29T00:12:38;19.40;92.90
18101;DHT22;9177;49.156;8.142;2022-12-29T00:15:23;19.40;92.90
18101;DHT22;9177;49.156;8.142;2022-12-29T00:18:07;19.40;92.90
18101;DHT22;9177;49.156;8.142;2022-12-29T00:20:35;19.30;92.90
18101;DHT22;9177;49.156;8.142;2022-12-29T00:23:19;19.30;92.90
18101;DHT22;9177;49.156;8.142;2022-12-29T00:26:05;19.30;93.00
18101;DHT22;9177;49.156;8.142;2022-12-29T00:28:53;19.30;93.00
18101;DHT22;9177;49.156;8.142;2022-12-29T00:31:37;19.30;93.00
18101;DHT22;9177;49.156;8.142;2022-12-29T00:34:22;19.20;93.10
18101;DHT22;9177;49.156;8.142;2022-12-29T00:37:07;19.20;93.10
18101;DHT22;9177;49.156;8.142;2022-12-29T00:39:33;19.20;93.10
18101;DHT22;9177;49.156;8.142;2022-12-29T00:42:18;19.20;93.20
18101;DHT22;9177;49.156;8.142;2022-12-29T00:45:03;19.20;93.30
18101;DHT22;9177;49.156;8.142;2022-12-29T00:47:30;19.20;93.30
18101;DHT22;9177;49.156;8.142;2022-12-29T00:49:58;19.20;93.40
18101;DHT22;9177;49.156;8.142;2022-12-29T00:52:24;19.10;93.40
18101;DHT22;9177;49.156;8.142;2022-12-29T00:54:51;19.10;93.40
18101;DHT22;9177;49.156;8.142;2022-12-29T00:57:18;19.10;93.40
18101;DHT22;9177;49.156;8.142;2022-12-29T00:59:45;19.10;93.50
18101;DHT22;9177;49.156;8.142;2022-12-29T01:02:11;19.10;93.50
18101;DHT22;9177;49.156;8.142;2022-12-29T01:04:38;19.10;93.50
18101;DHT22;9177;49.156;8.142;2022-12-29T01:07:06;19.10;93.50
18101;DHT22;9177;49.156;8.142;2022-12-29T01:09:33;19.10;93.60
18101;DHT22;9177;49.156;8.142;2022-12-29T01:12:17;19.10;93.60
18101;DHT22;9177;49.156;8.142;2022-12-29T01:15:06;19.10;93.60
18101;DHT22;9177;49.156;8.142;2022-12-29T01:17:33;19.10;93.70
18101;DHT22;9177;49.156;8.142;2022-12-29T01:20:00;19.10;93.70
18101;DHT22;9177;49.156;8.142;2022-12-29T01:22:29;19.10;93.70
18101;DHT22;9177;49.156;8.142;2022-12-29T01:24:55;19.10;93.80
18101;DHT22;9177;49.156;8.142;2022-12-29T01:27:22;19.10;93.70
18101;DHT22;9177;49.156;8.142;2022-12-29T01:29:50;19.00;93.70
18101;DHT22;9177;49.156;8.142;2022-12-29T01:32:22;19.00;93.80
18101;DHT22;9177;49.156;8.142;2022-12-29T01:34:53;19.00;93.90
18101;DHT22;9177;49.156;8.142;2022-12-29T01:37:20;19.00;93.90
18101;DHT22;9177;49.156;8.142;2022-12-29T01:39:49;19.00;93.90
18101;DHT22;9177;49.156;8.142;2022-12-29T01:42:17;19.00;94.00
18101;DHT22;9177;49.156;8.142;2022-12-29T01:44:51;19.00;94.00
18101;DHT22;9177;49.156;8.142;2022-12-29T01:47:25;19.00;94.00
18101;DHT22;9177;49.156;8.142;2022-12-29T01:49:55;19.00;94.10
18101;DHT22;9177;49.156;8.142;2022-12-29T01:52:27;19.00;94.20
18101;DHT22;9177;49.156;8.142;2022-12-29T01:54:57;19.00;94.20
18101;DHT22;9177;49.156;8.142;2022-12-29T01:57:28;18.90;94.20
18101;DHT22;9177;49.156;8.142;2022-12-29T01:59:59;18.90;94.20
18101;DHT22;9177;49.156;8.142;2022-12-29T02:02:29;18.90;94.30
18101;DHT22;9177;49.156;8.142;2022-12-29T02:04:58;18.90;94.30
18101;DHT22;9177;49.156;8.142;2022-12-29T02:07:27;18.90;94.40
18101;DHT22;9177;49.156;8.142;2022-12-29T02:09:56;18.90;94.40
18101;DHT22;9177;49.156;8.142;2022-12-29T02:12:23;18.90;94.40
18101;DHT22;9177;49.156;8.142;2022-12-29T02:14:54;18.90;94.40
18101;DHT22;9177;49.156;8.142;2022-12-29T02:17:32;18.90;94.50
18101;DHT22;9177;49.156;8.142;2022-12-29T02:20:30;18.90;94.50
18101;DHT22;9177;49.156;8.142;2022-12-29T02:23:24;18.90;94.50
18101;DHT22;9177;49.156;8.142;2022-12-29T02:26:32;18.90;94.60
18101;DHT22;9177;49.156;8.142;2022-12-29T02:31:57;18.80;94.60
18101;DHT22;9177;49.156;8.142;2022-12-29T02:34:32;18.90;94.70
18101;DHT22;9177;49.156;8.142;2022-12-29T02:37:06;18.90;94.60
18101;DHT22;9177;49.156;8.142;2022-12-29T02:39:39;18.90;94.70
18101;DHT22;9177;49.156;8.142;2022-12-29T02:42:13;18.90;95.10
18101;DHT22;9177;49.156;8.142;2022-12-29T02:44:50;18.90;94.70
18101;DHT22;9177;49.156;8.142;2022-12-29T02:47:26;18.80;94.70
18101;DHT22;9177;49.156;8.142;2022-12-29T02:49:59;18.90;94.80
18101;DHT22;9177;49.156;8.142;2022-12-29T02:52:31;18.80;94.70
18101;DHT22;9177;49.156;8.142;2022-12-29T02:54:58;18.80;94.70
18101;DHT22;9177;49.156;8.142;2022-12-29T02:57:33;18.80;94.80
18101;DHT22;9177;49.156;8.142;2022-12-29T03:00:03;18.80;94.80
18101;DHT22;9177;49.156;8.142;2022-12-29T03:05:59;18.80;94.80
18101;DHT22;9177;49.156;8.142;2022-12-29T03:08:34;18.80;94.80
18101;DHT22;9177;49.156;8.142;2022-12-29T03:11:05;18.80;94.80
18101;DHT22;9177;49.156;8.142;2022-12-29T03:13:56;18.80;94.80
18101;DHT22;9177;49.156;8.142;2022-12-29T03:16:45;18.80;94.80
18101;DHT22;9177;49.156;8.142;2022-12-29T03:19:18;18.80;94.80
18101;DHT22;9177;49.156;8.142;2022-12-29T03:21:52;18.80;94.90
18101;DHT22;9177;49.156;8.142;2022-12-29T03:24:49;18.80;94.90
18101;DHT22;9177;49.156;8.142;2022-12-29T03:27:21;18.80;94.90
18101;DHT22;9177;49.156;8.142;2022-12-29T03:29:52;18.80;94.90
18101;DHT22;9177;49.156;8.142;2022-12-29T03:32:22;18.80;94.90
18101;DHT22;9177;49.156;8.142;2022-12-29T03:34:50;18.80;94.90
18101;DHT22;9177;49.156;8.142;2022-12-29T03:37:20;18.80;94.90
18101;DHT22;9177;49.156;8.142;2022-12-29T03:39:51;18.80;94.90
18101;DHT22;9177;49.156;8.142;2022-12-29T03:42:23;18.80;94.80
18101;DHT22;9177;49.156;8.142;2022-12-29T03:44:54;19.00;94.70
18101;DHT22;9177;49.156;8.142;2022-12-29T03:47:22;19.20;94.40
18101;DHT22;9177;49.156;8.142;2022-12-29T03:49:50;19.50;94.10
18101;DHT22;9177;49.156;8.142;2022-12-29T03:52:18;19.70;93.90
18101;DHT22;9177;49.156;8.142;2022-12-29T03:54:45;19.90;93.60
18101;DHT22;9177;49.156;8.142;2022-12-29T03:57:12;20.20;93.30
18101;DHT22;9177;49.156;8.142;2022-12-29T03:59:39;20.40;93.00
18101;DHT22;9177;49.156;8.142;2022-12-29T04:02:05;20.60;92.80
18101;DHT22;9177;49.156;8.142;2022-12-29T04:04:32;20.70;92.60
18101;DHT22;9177;49.156;8.142;2022-12-29T04:06:59;20.80;92.40
18101;DHT22;9177;49.156;8.142;2022-12-29T04:09:27;20.90;92.30
18101;DHT22;9177;49.156;8.142;2022-12-29T04:11:55;21.00;92.20
18101;DHT22;9177;49.156;8.142;2022-12-29T04:14:22;21.10;92.20
18101;DHT22;9177;49.156;8.142;2022-12-29T04:16:54;21.20;92.10
18101;DHT22;9177;49.156;8.142;2022-12-29T04:19:45;21.20;92.00
18101;DHT22;9177;49.156;8.142;2022-12-29T04:22:11;21.30;91.90
18101;DHT22;9177;49.156;8.142;2022-12-29T04:24:40;21.40;92.20
18101;DHT22;9177;49.156;8.142;2022-12-29T04:27:06;21.40;91.80
18101;DHT22;9177;49.156;8.142;2022-12-29T04:29:33;21.40;91.80
18101;DHT22;9177;49.156;8.142;2022-12-29T04:32:00;21.40;91.80
18101;DHT22;9177;49.156;8.142;2022-12-29T04:34:27;21.30;91.80
18101;DHT22;9177;49.156;8.142;2022-12-29T04:36:53;21.20;91.90
18101;DHT22;9177;49.156;8.142;2022-12-29T04:39:21;21.10;92.40
18101;DHT22;9177;49.156;8.142;2022-12-29T04:41:49;21.00;92.10
18101;DHT22;9177;49.156;8.142;2022-12-29T04:44:16;20.90;92.20
18101;DHT22;9177;49.156;8.142;2022-12-29T04:46:43;20.80;92.30
18101;DHT22;9177;49.156;8.142;2022-12-29T04:49:10;20.80;92.50
18101;DHT22;9177;49.156;8.142;2022-12-29T04:51:36;20.60;92.60
18101;DHT22;9177;49.156;8.142;2022-12-29T04:54:03;20.50;92.70
18101;DHT22;9177;49.156;8.142;2022-12-29T04:56:30;20.40;92.80
18101;DHT22;9177;49.156;8.142;2022-12-29T04:58:58;20.40;93.00
18101;DHT22;9177;49.156;8.142;2022-12-29T05:01:25;20.30;93.00
18101;DHT22;9177;49.156;8.142;2022-12-29T05:03:52;20.30;93.20
18101;DHT22;9177;49.156;8.142;2022-12-29T05:06:19;20.20;93.60
18101;DHT22;9177;49.156;8.142;2022-12-29T05:08:46;20.10;93.30
18101;DHT22;9177;49.156;8.142;2022-12-29T05:11:13;20.10;93.50
18101;DHT22;9177;49.156;8.142;2022-12-29T05:13:40;20.00;93.50
18101;DHT22;9177;49.156;8.142;2022-12-29T05:16:08;20.00;93.60
18101;DHT22;9177;49.156;8.142;2022-12-29T05:18:35;19.90;93.70
18101;DHT22;9177;49.156;8.142;2022-12-29T05:21:05;19.90;93.70
18101;DHT22;9177;49.156;8.142;2022-12-29T05:23:31;19.90;93.80
18101;DHT22;9177;49.156;8.142;2022-12-29T05:25:58;19.80;93.90
18101;DHT22;9177;49.156;8.142;2022-12-29T05:28:25;19.80;93.90
18101;DHT22;9177;49.156;8.142;2022-12-29T05:30:52;19.80;93.90
18101;DHT22;9177;49.156;8.142;2022-12-29T05:33:20;19.80;94.00
18101;DHT22;9177;49.156;8.142;2022-12-29T05:35:47;19.70;93.90
18101;DHT22;9177;49.156;8.142;2022-12-29T05:38:14;19.80;94.00
18101;DHT22;9177;49.156;8.142;2022-12-29T05:40:40;19.80;93.90
18101;DHT22;9177;49.156;8.142;2022-12-29T05:43:07;19.80;93.90
18101;DHT22;9177;49.156;8.142;2022-12-29T05:45:36;19.80;93.90
18101;DHT22;9177;49.156;8.142;2022-12-29T05:48:03;19.90;93.90
18101;DHT22;9177;49.156;8.142;2022-12-29T05:50:32;19.90;94.20
18101;DHT22;9177;49.156;8.142;2022-12-29T05:52:59;19.90;94.20
18101;DHT22;9177;49.156;8.142;2022-12-29T05:55:25;19.90;93.70
18101;DHT22;9177;49.156;8.142;2022-12-29T05:57:54;20.00;93.70
18101;DHT22;9177;49.156;8.142;2022-12-29T06:00:23;20.00;93.70
18101;DHT22;9177;49.156;8.142;2022-12-29T06:02:49;20.00;94.00
18101;DHT22;9177;49.156;8.142;2022-12-29T06:05:16;20.00;93.60
18101;DHT22;9177;49.156;8.142;2022-12-29T06:07:44;20.10;93.60
18101;DHT22;9177;49.156;8.142;2022-12-29T06:10:12;20.10;93.60
18101;DHT22;9177;49.156;8.142;2022-12-29T06:12:38;20.10;93.60
18101;DHT22;9177;49.156;8.142;2022-12-29T06:15:07;20.10;93.60
18101;DHT22;9177;49.156;8.142;2022-12-29T06:17:34;20.10;93.50
18101;DHT22;9177;49.156;8.142;2022-12-29T06:20:01;20.10;93.50
18101;DHT22;9177;49.156;8.142;2022-12-29T06:22:37;20.10;93.50
18101;DHT22;9177;49.156;8.142;2022-12-29T06:25:06;20.10;93.50
18101;DHT22;9177;49.156;8.142;2022-12-29T06:27:33;20.20;93.50
18101;DHT22;9177;49.156;8.142;2022-12-29T06:30:00;20.20;93.50
18101;DHT22;9177;49.156;8.142;2022-12-29T06:32:27;20.20;93.40
18101;DHT22;9177;49.156;8.142;2022-12-29T06:34:54;20.10;93.40
18101;DHT22;9177;49.156;8.142;2022-12-29T06:37:21;20.20;93.40
18101;DHT22;9177;49.156;8.142;2022-12-29T06:39:47;20.20;93.40
18101;DHT22;9177;49.156;8.142;2022-12-29T06:42:16;20.20;93.40
18101;DHT22;9177;49.156;8.142;2022-12-29T06:44:43;20.10;93.40
18101;DHT22;9177;49.156;8.142;2022-12-29T06:47:10;20.10;93.40
18101;DHT22;9177;49.156;8.142;2022-12-29T06:49:37;20.10;93.50
18101;DHT22;9177;49.156;8.142;2022-12-29T06:52:04;20.20;93.50
18101;DHT22;9177;49.156;8.142;2022-12-29T06:54:31;20.10;93.50
18101;DHT22;9177;49.156;8.142;2022-12-29T06:56:58;20.10;93.50
18101;DHT22;9177;49.156;8.142;2022-12-29T06:59:26;20.10;93.50
18101;DHT22;9177;49.156;8.142;2022-12-29T07:01:54;20.10;93.50
18101;DHT22;9177;49.156;8.142;2022-12-29T07:04:21;20.10;93.50
18101;DHT22;9177;49.156;8.142;2022-12-29T07:06:48;20.10;93.50
18101;DHT22;9177;49.156;8.142;2022-12-29T07:09:15;20.10;93.50
18101;DHT22;9177;49.156;8.142;2022-12-29T07:11:41;20.00;93.50
18101;DHT22;9177;49.156;8.142;2022-12-29T07:14:09;20.10;93.50
18101;DHT22;9177;49.156;8.142;2022-12-29T07:16:38;20.10;93.50
18101;DHT22;9177;49.156;8.142;2022-12-29T07:19:05;20.10;93.60
18101;DHT22;9177;49.156;8.142;2022-12-29T07:21:32;20.00;93.50
18101;DHT22;9177;49.156;8.142;2022-12-29T07:23:59;20.10;93.60
18101;DHT22;9177;49.156;8.142;2022-12-29T07:26:25;20.00;93.50
18101;DHT22;9177;49.156;8.142;2022-12-29T07:28:52;20.00;93.50
18101;DHT22;9177;49.156;8.142;2022-12-29T07:31:22;20.00;93.50
18101;DHT22;9177;49.156;8.142;2022-12-29T07:33:52;20.00;93.50
18101;DHT22;9177;49.156;8.142;2022-12-29T07:36:19;20.00;93.50
18101;DHT22;9177;49.156;8.142;2022-12-29T07:38:46;20.00;93.60
18101;DHT22;9177;49.156;8.142;2022-12-29T07:41:13;20.00;93.60
18101;DHT22;9177;49.156;8.142;2022-12-29T07:43:40;20.00;93.60
18101;DHT22;9177;49.156;8.142;2022-12-29T07:46:07;20.00;93.60
18101;DHT22;9177;49.156;8.142;2022-12-29T07:48:34;20.00;93.60
18101;DHT22;9177;49.156;8.142;2022-12-29T07:51:03;20.00;93.60
18101;DHT22;9177;49.156;8.142;2022-12-29T07:53:29;20.00;93.60
18101;DHT22;9177;49.156;8.142;2022-12-29T07:55:56;20.00;93.50
18101;DHT22;9177;49.156;8.142;2022-12-29T07:58:23;20.00;93.50
18101;DHT22;9177;49.156;8.142;2022-12-29T08:00:53;20.00;93.50
18101;DHT22;9177;49.156;8.142;2022-12-29T08:03:20;20.00;93.50
18101;DHT22;9177;49.156;8.142;2022-12-29T08:05:53;20.00;93.50
18101;DHT22;9177;49.156;8.142;2022-12-29T08:08:22;20.00;93.50
18101;DHT22;9177;49.156;8.142;2022-12-29T08:10:49;20.00;93.50
18101;DHT22;9177;49.156;8.142;2022-12-29T08:13:16;20.00;93.50
18101;DHT22;9177;49.156;8.142;2022-12-29T08:15:43;20.00;93.50
18101;DHT22;9177;49.156;8.142;2022-12-29T08:18:09;20.00;93.50
18101;DHT22;9177;49.156;8.142;2022-12-29T08:20:36;20.00;93.50
18101;DHT22;9177;49.156;8.142;2022-12-29T08:23:03;20.10;93.50
18101;DHT22;9177;49.156;8.142;2022-12-29T08:25:31;20.00;93.50
18101;DHT22;9177;49.156;8.142;2022-12-29T08:27:58;20.10;93.50
18101;DHT22;9177;49.156;8.142;2022-12-29T08:30:25;20.00;93.50
18101;DHT22;9177;49.156;8.142;2022-12-29T08:32:52;20.10;93.50
18101;DHT22;9177;49.156;8.142;2022-12-29T08:35:19;20.00;93.40
18101;DHT22;9177;49.156;8.142;2022-12-29T08:37:47;20.10;93.50
18101;DHT22;9177;49.156;8.142;2022-12-29T08:40:14;20.00;93.40
18101;DHT22;9177;49.156;8.142;2022-12-29T08:42:43;20.10;93.50
18101;DHT22;9177;49.156;8.142;2022-12-29T08:45:10;20.00;93.50
18101;DHT22;9177;49.156;8.142;2022-12-29T08:47:37;20.00;93.50
18101;DHT22;9177;49.156;8.142;2022-12-29T08:50:05;20.00;93.50
18101;DHT22;9177;49.156;8.142;2022-12-29T08:52:32;20.00;93.50
18101;DHT22;9177;49.156;8.142;2022-12-29T08:54:59;20.00;93.50
18101;DHT22;9177;49.156;8.142;2022-12-29T08:57:25;20.00;93.50
18101;DHT22;9177;49.156;8.142;2022-12-29T08:59:54;20.10;93.50
18101;DHT22;9177;49.156;8.142;2022-12-29T09:02:20;20.10;93.50
18101;DHT22;9177;49.156;8.142;2022-12-29T09:04:47;20.00;93.50
18101;DHT22;9177;49.156;8.142;2022-12-29T09:07:14;20.00;93.50
18101;DHT22;9177;49.156;8.142;2022-12-29T09:09:41;20.10;93.60
18101;DHT22;9177;49.156;8.142;2022-12-29T09:12:08;20.10;93.60
18101;DHT22;9177;49.156;8.142;2022-12-29T09:14:35;20.10;93.60
18101;DHT22;9177;49.156;8.142;2022-12-29T09:17:03;20.10;93.60
18101;DHT22;9177;49.156;8.142;2022-12-29T09:19:47;20.10;93.70
18101;DHT22;9177;49.156;8.142;2022-12-29T09:22:14;20.10;93.70
18101;DHT22;9177;49.156;8.142;2022-12-29T09:24:52;20.00;94.10
18101;DHT22;9177;49.156;8.142;2022-12-29T09:27:21;20.00;93.70
18101;DHT22;9177;49.156;8.142;2022-12-29T09:29:48;20.10;93.80
18101;DHT22;9177;49.156;8.142;2022-12-29T09:32:16;20.10;93.80
18101;DHT22;9177;49.156;8.142;2022-12-29T09:34:43;20.10;93.80
18101;DHT22;9177;49.156;8.142;2022-12-29T09:37:10;20.10;93.80
18101;DHT22;9177;49.156;8.142;2022-12-29T09:39:37;20.10;93.90
18101;DHT22;9177;49.156;8.142;2022-12-29T09:42:12;20.10;94.00
18101;DHT22;9177;49.156;8.142;2022-12-29T09:44:51;20.10;94.00
18101;DHT22;9177;49.156;8.142;2022-12-29T09:47:23;20.10;94.00
18101;DHT22;9177;49.156;8.142;2022-12-29T09:49:55;20.10;94.00
18101;DHT22;9177;49.156;8.142;2022-12-29T09:52:25;20.10;94.10
18101;DHT22;9177;49.156;8.142;2022-12-29T09:54:57;20.10;94.10
18101;DHT22;9177;49.156;8.142;2022-12-29T09:57:27;20.10;94.10
18101;DHT22;9177;49.156;8.142;2022-12-29T09:59:59;20.20;94.20
18101;DHT22;9177;49.156;8.142;2022-12-29T10:02:36;20.10;94.10
18101;DHT22;9177;49.156;8.142;2022-12-29T10:05:09;20.10;94.10
18101;DHT22;9177;49.156;8.142;2022-12-29T10:07:44;20.10;94.20
18101;DHT22;9177;49.156;8.142;2022-12-29T10:10:20;20.10;94.20
18101;DHT22;9177;49.156;8.142;2022-12-29T10:12:59;20.10;94.20
18101;DHT22;9177;49.156;8.142;2022-12-29T10:15:36;20.10;94.30
18101;DHT22;9177;49.156;8.142;2022-12-29T10:21:05;20.10;94.30
18101;DHT22;9177;49.156;8.142;2022-12-29T10:23:38;20.10;94.40
18101;DHT22;9177;49.156;8.142;2022-12-29T10:26:12;20.10;94.40
18101;DHT22;9177;49.156;8.142;2022-12-29T10:28:43;20.10;94.40
18101;DHT22;9177;49.156;8.142;2022-12-29T10:31:18;20.10;94.40
18101;DHT22;9177;49.156;8.142;2022-12-29T10:33:55;20.10;94.40
18101;DHT22;9177;49.156;8.142;2022-12-29T10:36:28;20.10;94.40
18101;DHT22;9177;49.156;8.142;2022-12-29T10:39:05;20.10;94.40
18101;DHT22;9177;49.156;8.142;2022-12-29T10:41:38;20.10;94.50
18101;DHT22;9177;49.156;8.142;2022-12-29T10:44:09;20.00;94.40
18101;DHT22;9177;49.156;8.142;2022-12-29T10:46:42;20.00;94.40
18101;DHT22;9177;49.156;8.142;2022-12-29T10:49:16;20.00;94.50
18101;DHT22;9177;49.156;8.142;2022-12-29T10:51:46;20.00;94.40
18101;DHT22;9177;49.156;8.142;2022-12-29T10:54:18;20.00;94.40
18101;DHT22;9177;49.156;8.142;2022-12-29T10:56:50;20.10;94.40
18101;DHT22;9177;49.156;8.142;2022-12-29T10:59:21;20.10;94.30
18101;DHT22;9177;49.156;8.142;2022-12-29T11:01:57;20.10;94.20
18101;DHT22;9177;49.156;8.142;2022-12-29T11:04:40;20.20;94.20
18101;DHT22;9177;49.156;8.142;2022-12-29T11:07:10;20.30;94.10
18101;DHT22;9177;49.156;8.142;2022-12-29T11:09:39;20.30;94.00
18101;DHT22;9177;49.156;8.142;2022-12-29T11:12:22;20.30;94.00
18101;DHT22;9177;49.156;8.142;2022-12-29T11:15:12;20.30;94.10
18101;DHT22;9177;49.156;8.142;2022-12-29T11:17:49;20.30;94.10
18101;DHT22;9177;49.156;8.142;2022-12-29T11:20:30;20.30;94.10
18101;DHT22;9177;49.156;8.142;2022-12-29T11:22:57;20.30;94.10
18101;DHT22;9177;49.156;8.142;2022-12-29T11:25:25;20.30;94.00
18101;DHT22;9177;49.156;8.142;2022-12-29T11:27:56;20.30;94.10
18101;DHT22;9177;49.156;8.142;2022-12-29T11:30:26;20.40;94.20
18101;DHT22;9177;49.156;8.142;2022-12-29T11:32:55;20.40;94.90
18101;DHT22;9177;49.156;8.142;2022-12-29T11:35:36;20.50;94.80
18101;DHT22;9177;49.156;8.142;2022-12-29T11:38:04;20.60;94.90
18101;DHT22;9177;49.156;8.142;2022-12-29T11:40:32;20.70;95.20
18101;DHT22;9177;49.156;8.142;2022-12-29T11:43:05;20.80;95.30
18101;DHT22;9177;49.156;8.142;2022-12-29T11:45:34;20.80;95.40
18101;DHT22;9177;49.156;8.142;2022-12-29T11:48:07;20.80;95.50
18101;DHT22;9177;49.156;8.142;2022-12-29T11:50:42;20.70;95.70
18101;DHT22;9177;49.156;8.142;2022-12-29T11:53:17;20.70;95.50
18101;DHT22;9177;49.156;8.142;2022-12-29T11:55:51;20.60;95.40
18101;DHT22;9177;49.156;8.142;2022-12-29T11:58:27;20.50;95.30
18101;DHT22;9177;49.156;8.142;2022-12-29T12:00:55;20.50;95.10
18101;DHT22;9177;49.156;8.142;2022-12-29T12:03:24;20.50;94.80
18101;DHT22;9177;49.156;8.142;2022-12-29T12:05:56;20.40;94.60
18101;DHT22;9177;49.156;8.142;2022-12-29T12:08:33;20.40;94.60
18101;DHT22;9177;49.156;8.142;2022-12-29T12:11:06;20.40;94.50
18101;DHT22;9177;49.156;8.142;2022-12-29T12:13:36;20.40;94.80
18101;DHT22;9177;49.156;8.142;2022-12-29T12:16:08;20.40;94.30
18101;DHT22;9177;49.156;8.142;2022-12-29T12:18:40;20.50;94.20
18101;DHT22;9177;49.156;8.142;2022-12-29T12:21:18;20.50;94.20
18101;DHT22;9177;49.156;8.142;2022-12-29T12:24:00;20.40;94.10
18101;DHT22;9177;49.156;8.142;2022-12-29T12:26:34;20.40;94.30
18101;DHT22;9177;49.156;8.142;2022-12-29T12:29:09;20.30;94.30
18101;DHT22;9177;49.156;8.142;2022-12-29T12:31:44;20.40;94.40
18101;DHT22;9177;49.156;8.142;2022-12-29T12:34:15;20.50;94.50
18101;DHT22;9177;49.156;8.142;2022-12-29T12:37:02;20.50;94.50
18101;DHT22;9177;49.156;8.142;2022-12-29T12:39:40;20.50;94.90
18101;DHT22;9177;49.156;8.142;2022-12-29T12:42:20;20.60;94.60
18101;DHT22;9177;49.156;8.142;2022-12-29T12:44:54;20.60;94.50
18101;DHT22;9177;49.156;8.142;2022-12-29T12:47:39;20.50;94.60
18101;DHT22;9177;49.156;8.142;2022-12-29T12:50:16;20.50;94.80
18101;DHT22;9177;49.156;8.142;2022-12-29T12:53:12;20.50;94.80
18101;DHT22;9177;49.156;8.142;2022-12-29T12:55:51;20.40;94.80
18101;DHT22;9177;49.156;8.142;2022-12-29T12:58:27;20.50;94.80
18101;DHT22;9177;49.156;8.142;2022-12-29T13:01:14;20.50;94.80
18101;DHT22;9177;49.156;8.142;2022-12-29T13:03:53;20.50;95.00
18101;DHT22;9177;49.156;8.142;2022-12-29T13:06:35;20.50;95.00
18101;DHT22;9177;49.156;8.142;2022-12-29T13:09:21;20.60;95.20
18101;DHT22;9177;49.156;8.142;2022-12-29T13:12:02;20.60;95.80
18101;DHT22;9177;49.156;8.142;2022-12-29T13:14:42;20.60;95.90
18101;DHT22;9177;49.156;8.142;2022-12-29T13:17:17;20.60;95.80
18101;DHT22;9177;49.156;8.142;2022-12-29T13:19:54;20.60;96.10
18101;DHT22;9177;49.156;8.142;2022-12-29T13:22:29;20.60;96.20
18101;DHT22;9177;49.156;8.142;2022-12-29T13:25:14;20.60;96.30
18101;DHT22;9177;49.156;8.142;2022-12-29T13:27:51;20.60;96.40
18101;DHT22;9177;49.156;8.142;2022-12-29T13:30:21;20.60;96.80
18101;DHT22;9177;49.156;8.142;2022-12-29T13:32:59;20.60;96.70
18101;DHT22;9177;49.156;8.142;2022-12-29T13:35:43;20.60;97.00
18101;DHT22;9177;49.156;8.142;2022-12-29T13:38:17;20.60;97.00
18101;DHT22;9177;49.156;8.142;2022-12-29T13:40:50;20.60;96.90
18101;DHT22;9177;49.156;8.142;2022-12-29T13:43:23;20.60;97.30
18101;DHT22;9177;49.156;8.142;2022-12-29T13:45:58;20.60;97.40
18101;DHT22;9177;49.156;8.142;2022-12-29T13:48:34;20.80;97.40
18101;DHT22;9177;49.156;8.142;2022-12-29T13:51:02;20.80;97.60
18101;DHT22;9177;49.156;8.142;2022-12-29T13:53:36;20.70;97.50
18101;DHT22;9177;49.156;8.142;2022-12-29T13:56:12;20.70;97.70
18101;DHT22;9177;49.156;8.142;2022-12-29T13:58:44;20.60;97.40
18101;DHT22;9177;49.156;8.142;2022-12-29T14:01:17;20.50;97.30
18101;DHT22;9177;49.156;8.142;2022-12-29T14:03:48;20.40;97.50
18101;DHT22;9177;49.156;8.142;2022-12-29T14:06:20;20.40;97.30
18101;DHT22;9177;49.156;8.142;2022-12-29T14:08:48;20.40;97.30
18101;DHT22;9177;49.156;8.142;2022-12-29T14:11:21;20.30;97.20
18101;DHT22;9177;49.156;8.142;2022-12-29T14:13:50;20.30;97.20
18101;DHT22;9177;49.156;8.142;2022-12-29T14:16:29;20.20;97.20
18101;DHT22;9177;49.156;8.142;2022-12-29T14:19:04;20.20;97.20
18101;DHT22;9177;49.156;8.142;2022-12-29T14:21:32;20.10;97.10
18101;DHT22;9177;49.156;8.142;2022-12-29T14:27:51;20.10;97.00
18101;DHT22;9177;49.156;8.142;2022-12-29T14:30:46;20.20;97.00
18101;DHT22;9177;49.156;8.142;2022-12-29T14:33:15;20.20;97.00
18101;DHT22;9177;49.156;8.142;2022-12-29T14:35:44;20.20;96.90
18101;DHT22;9177;49.156;8.142;2022-12-29T14:38:17;20.20;97.40
18101;DHT22;9177;49.156;8.142;2022-12-29T14:40:45;20.20;97.10
18101;DHT22;9177;49.156;8.142;2022-12-29T14:43:20;20.30;97.20
18101;DHT22;9177;49.156;8.142;2022-12-29T14:45:59;20.30;97.20
18101;DHT22;9177;49.156;8.142;2022-12-29T14:48:36;20.30;97.10
18101;DHT22;9177;49.156;8.142;2022-12-29T14:51:18;20.30;97.20
18101;DHT22;9177;49.156;8.142;2022-12-29T14:53:47;20.30;97.20
18101;DHT22;9177;49.156;8.142;2022-12-29T14:56:16;20.30;97.20
18101;DHT22;9177;49.156;8.142;2022-12-29T14:58:50;20.30;97.20
18101;DHT22;9177;49.156;8.142;2022-12-29T15:01:26;20.30;97.20
18101;DHT22;9177;49.156;8.142;2022-12-29T15:03:57;20.30;97.20
18101;DHT22;9177;49.156;8.142;2022-12-29T15:06:28;20.30;97.20
18101;DHT22;9177;49.156;8.142;2022-12-29T15:09:00;20.30;97.20
18101;DHT22;9177;49.156;8.142;2022-12-29T15:11:42;20.30;97.20
18101;DHT22;9177;49.156;8.142;2022-12-29T15:14:35;20.30;97.20
18101;DHT22;9177;49.156;8.142;2022-12-29T15:17:10;20.30;97.10
18101;DHT22;9177;49.156;8.142;2022-12-29T15:19:38;20.30;97.10
18101;DHT22;9177;49.156;8.142;2022-12-29T15:22:05;20.30;97.10
18101;DHT22;9177;49.156;8.142;2022-12-29T15:24:33;20.30;97.00
18101;DHT22;9177;49.156;8.142;2022-12-29T15:27:03;20.30;97.10
18101;DHT22;9177;49.156;8.142;2022-12-29T15:29:35;20.30;97.00
18101;DHT22;9177;49.156;8.142;2022-12-29T15:32:17;20.30;97.10
18101;DHT22;9177;49.156;8.142;2022-12-29T15:34:46;20.30;97.20
18101;DHT22;9177;49.156;8.142;2022-12-29T15:37:28;20.30;97.10
18101;DHT22;9177;49.156;8.142;2022-12-29T15:39:59;20.30;97.10
18101;DHT22;9177;49.156;8.142;2022-12-29T15:42:45;20.30;97.10
18101;DHT22;9177;49.156;8.142;2022-12-29T15:45:16;20.30;97.00
18101;DHT22;9177;49.156;8.142;2022-12-29T15:47:44;20.30;97.00
18101;DHT22;9177;49.156;8.142;2022-12-29T15:50:20;20.20;97.00
18101;DHT22;9177;49.156;8.142;2022-12-29T15:52:49;20.20;97.00
18101;DHT22;9177;49.156;8.142;2022-12-29T15:55:21;20.20;97.00
18101;DHT22;9177;49.156;8.142;2022-12-29T15:57:55;20.20;97.00
18101;DHT22;9177;49.156;8.142;2022-12-29T16:00:27;20.30;97.00
18101;DHT22;9177;49.156;8.142;2022-12-29T16:02:56;20.20;97.00
18101;DHT22;9177;49.156;8.142;2022-12-29T16:05:23;20.20;97.00
18101;DHT22;9177;49.156;8.142;2022-12-29T16:07:55;20.20;97.00
18101;DHT22;9177;49.156;8.142;2022-12-29T16:10:27;20.20;97.00
18101;DHT22;9177;49.156;8.142;2022-12-29T16:13:04;20.20;97.00
18101;DHT22;9177;49.156;8.142;2022-12-29T16:15:35;20.20;97.10
18101;DHT22;9177;49.156;8.142;2022-12-29T16:18:02;20.20;97.00
18101;DHT22;9177;49.156;8.142;2022-12-29T16:20:39;20.20;97.00
18101;DHT22;9177;49.156;8.142;2022-12-29T16:23:18;20.20;97.00
18101;DHT22;9177;49.156;8.142;2022-12-29T16:25:46;20.30;97.00